createdAt,value
2022-12-08T00:01:35.494Z,5.30
2022-12-08T00:04:05.033Z,5.33
2022-12-08T00:06:59.611Z,5.33
2022-12-08T00:09:39.689Z,5.31
2022-12-08T00:12:16.553Z,5.29
2022-12-08T00:14:47.187Z,5.32
2022-12-08T00:17:17.447Z,5.29
2022-12-08T00:19:45.133Z,5.26
2022-12-08T00:22:15.396Z,5.26
2022-12-08T00:24:47.614Z,5.21
2022-12-08T00:27:18.128Z,5.24
2022-12-08T00:29:46.371Z,5.29
2022-12-08T00:32:14.970Z,5.26
2022-12-08T00:34:42.657Z,5.30
2022-12-08T00:37:10.194Z,5.26
2022-12-08T00:39:38.556Z,5.24
2022-12-08T00:42:12.037Z,5.29
2022-12-08T00:44:41.885Z,5.28
2022-12-08T00:47:10.432Z,5.27
2022-12-08T00:49:37.922Z,5.31
2022-12-08T00:52:05.590Z,5.28
2022-12-08T00:54:33.169Z,5.35
2022-12-08T00:57:00.760Z,5.40
2022-12-08T00:59:28.322Z,5.43
2022-12-08T01:01:55.945Z,5.30
2022-12-08T01:04:24.928Z,5.33
2022-12-08T01:06:53.279Z,5.30
2022-12-08T01:09:20.876Z,5.36
2022-12-08T01:11:48.559Z,5.42
2022-12-08T01:14:16.563Z,5.33
2022-12-08T01:16:44.424Z,5.26
2022-12-08T01:19:15.225Z,5.23
2022-12-08T01:21:44.782Z,5.27
2022-12-08T01:24:19.226Z,5.28
2022-12-08T01:26:48.312Z,5.34
2022-12-08T01:29:16.077Z,5.41
2022-12-08T01:31:43.650Z,5.51
2022-12-08T01:34:12.665Z,5.49
2022-12-08T01:36:42.316Z,5.52
2022-12-08T01:39:16.999Z,5.34
2022-12-08T01:41:47.653Z,5.31
2022-12-08T01:44:15.118Z,5.36
2022-12-08T01:46:48.562Z,5.39
2022-12-08T01:49:28.224Z,5.38
2022-12-08T01:52:14.433Z,5.37
2022-12-08T01:54:55.744Z,5.33
2022-12-08T01:57:34.361Z,5.34
2022-12-08T02:00:09.673Z,5.30
2022-12-08T02:03:03.314Z,5.32
2022-12-08T02:05:38.590Z,5.30
2022-12-08T02:08:13.252Z,5.34
2022-12-08T02:10:43.894Z,5.38
2022-12-08T02:13:16.769Z,5.36
2022-12-08T02:16:46.457Z,5.41
2022-12-08T02:19:43.958Z,5.45
2022-12-08T02:22:48.947Z,5.38
2022-12-08T02:25:42.438Z,5.43
2022-12-08T02:28:47.609Z,5.50
2022-12-08T02:32:15.886Z,5.47
2022-12-08T02:35:18.729Z,5.42
2022-12-08T02:37:58.566Z,5.34
2022-12-08T02:40:39.993Z,5.42
2022-12-08T02:43:22.510Z,5.42
2022-12-08T02:46:02.166Z,5.28
2022-12-08T02:48:30.955Z,5.22
2022-12-08T02:50:58.646Z,5.30
2022-12-08T02:53:32.165Z,5.23
2022-12-08T02:56:20.696Z,5.32
2022-12-08T02:59:06.025Z,5.39
2022-12-08T03:01:54.029Z,5.31
2022-12-08T03:04:26.992Z,5.14
2022-12-08T03:07:14.988Z,5.13
2022-12-08T03:09:52.986Z,5.04
2022-12-08T03:12:41.606Z,5.00
2022-12-08T03:15:15.634Z,5.01
2022-12-08T03:17:50.516Z,4.99
2022-12-08T03:20:23.875Z,5.04
2022-12-08T03:22:56.298Z,5.04
2022-12-08T03:25:31.989Z,5.07
2022-12-08T03:28:00.382Z,5.03
2022-12-08T03:30:32.670Z,5.05
2022-12-08T03:33:15.632Z,5.01
2022-12-08T03:35:45.233Z,4.96
2022-12-08T03:38:17.539Z,4.98
2022-12-08T03:41:05.649Z,5.03
2022-12-08T03:43:34.879Z,4.98
2022-12-08T03:46:02.629Z,4.95
2022-12-08T03:48:30.262Z,4.88
2022-12-08T03:50:57.994Z,4.87
2022-12-08T03:53:25.529Z,4.92
2022-12-08T03:55:54.421Z,4.92
2022-12-08T03:58:21.976Z,4.91
2022-12-08T04:00:49.565Z,4.94
2022-12-08T04:03:17.144Z,4.96
2022-12-08T04:05:44.752Z,5.04
2022-12-08T04:08:12.367Z,5.02
2022-12-08T04:10:40.227Z,5.07
2022-12-08T04:13:07.788Z,5.05
2022-12-08T04:15:35.492Z,5.00
2022-12-08T04:18:03.413Z,4.99
2022-12-08T04:20:31.055Z,5.01
2022-12-08T04:22:58.586Z,4.98
2022-12-08T04:25:26.304Z,4.99
2022-12-08T04:27:53.829Z,4.99
2022-12-08T04:30:21.313Z,5.01
2022-12-08T04:32:48.837Z,5.01
2022-12-08T04:35:16.994Z,5.04
2022-12-08T04:37:44.760Z,5.01
2022-12-08T04:40:13.543Z,5.08
2022-12-08T04:42:41.589Z,5.04
2022-12-08T04:45:10.168Z,4.96
2022-12-08T04:47:38.237Z,4.96
2022-12-08T04:50:07.623Z,5.01
2022-12-08T04:52:37.215Z,5.01
2022-12-08T04:55:05.426Z,5.03
2022-12-08T04:57:33.016Z,5.08
2022-12-08T05:00:00.598Z,5.15
2022-12-08T05:02:28.186Z,5.13
2022-12-08T05:04:55.775Z,5.14
2022-12-08T05:07:23.295Z,5.19
2022-12-08T05:09:51.331Z,5.11
2022-12-08T05:12:18.882Z,5.18
2022-12-08T05:14:48.420Z,5.17
2022-12-08T05:17:19.161Z,5.07
2022-12-08T05:19:46.917Z,4.94
2022-12-08T05:22:14.461Z,4.91
2022-12-08T05:24:47.170Z,4.74
2022-12-08T05:27:16.052Z,4.70
2022-12-08T05:29:44.333Z,4.68
2022-12-08T05:32:11.973Z,4.64
2022-12-08T05:34:39.806Z,4.60
2022-12-08T05:37:07.407Z,4.53
2022-12-08T05:39:35.092Z,4.50
2022-12-08T05:42:02.838Z,4.48
2022-12-08T05:44:30.456Z,4.47
2022-12-08T05:46:57.991Z,4.42
2022-12-08T05:49:25.917Z,4.38
2022-12-08T05:51:53.483Z,4.37
2022-12-08T05:54:21.121Z,4.44
2022-12-08T05:56:49.837Z,4.46
2022-12-08T05:59:17.363Z,4.52
2022-12-08T06:01:44.926Z,4.60
2022-12-08T06:04:12.757Z,4.60
2022-12-08T06:06:40.233Z,4.58
2022-12-08T06:09:09.159Z,4.59
2022-12-08T06:11:36.950Z,4.70
2022-12-08T06:14:04.604Z,4.69
2022-12-08T06:16:32.872Z,4.82
2022-12-08T06:19:00.458Z,4.96
2022-12-08T06:21:28.842Z,5.04
2022-12-08T06:23:56.501Z,5.07
2022-12-08T06:26:24.205Z,5.15
2022-12-08T06:28:52.761Z,5.11
2022-12-08T06:31:23.245Z,5.08
2022-12-08T06:33:51.900Z,5.05
2022-12-08T06:36:24.766Z,5.02
2022-12-08T06:38:52.996Z,5.05
2022-12-08T06:41:20.757Z,5.13
2022-12-08T06:43:48.528Z,5.08
2022-12-08T06:46:19.818Z,5.03
2022-12-08T06:48:48.069Z,5.21
2022-12-08T06:51:19.933Z,5.15
2022-12-08T06:53:47.761Z,5.24
2022-12-08T06:56:19.927Z,5.38
2022-12-08T06:58:52.323Z,5.47
2022-12-08T07:01:21.278Z,5.39
2022-12-08T07:03:48.911Z,5.34
2022-12-08T07:06:25.278Z,5.63
2022-12-08T07:08:53.055Z,5.70
2022-12-08T07:11:22.304Z,5.52
2022-12-08T07:13:51.055Z,5.46
2022-12-08T07:16:18.876Z,5.44
2022-12-08T07:18:46.528Z,5.64
2022-12-08T07:21:17.593Z,5.85
2022-12-08T07:23:54.299Z,5.61
2022-12-08T07:26:25.821Z,5.56
2022-12-08T07:28:53.347Z,5.42
2022-12-08T07:31:24.947Z,5.58
2022-12-08T07:33:53.727Z,5.49
2022-12-08T07:36:22.317Z,5.43
2022-12-08T07:38:50.627Z,5.54
2022-12-08T07:41:23.533Z,5.68
2022-12-08T07:43:53.571Z,5.86
2022-12-08T07:46:24.801Z,6.02
2022-12-08T07:48:54.070Z,6.04
2022-12-08T07:51:21.676Z,6.08
2022-12-08T07:53:54.196Z,6.34
2022-12-08T07:56:23.270Z,5.98
2022-12-08T07:58:51.243Z,5.83
2022-12-08T08:01:32.893Z,5.91
2022-12-08T08:04:06.908Z,6.16
2022-12-08T08:06:37.891Z,6.04
2022-12-08T08:09:05.917Z,6.45
2022-12-08T08:11:33.702Z,6.83
2022-12-08T08:14:01.538Z,6.76
2022-12-08T08:16:33.524Z,6.91
2022-12-08T08:19:04.278Z,6.76
2022-12-08T08:21:47.175Z,6.41
2022-12-08T08:24:14.735Z,6.29
2022-12-08T08:26:42.305Z,6.26
2022-12-08T08:29:10.007Z,6.53
2022-12-08T08:31:37.654Z,6.42
2022-12-08T08:34:06.403Z,6.64
2022-12-08T08:36:34.395Z,7.17
2022-12-08T08:39:02.201Z,7.18
2022-12-08T08:41:29.809Z,7.16
2022-12-08T08:43:57.387Z,7.11
2022-12-08T08:46:25.142Z,7.02
2022-12-08T08:48:52.782Z,7.07
2022-12-08T08:51:21.000Z,7.15
2022-12-08T08:53:48.624Z,7.36
2022-12-08T08:56:22.374Z,7.48
2022-12-08T08:58:51.891Z,7.56
2022-12-08T09:01:26.344Z,7.53
2022-12-08T09:03:54.997Z,7.40
2022-12-08T09:06:24.123Z,7.05
2022-12-08T09:08:52.105Z,6.94
2022-12-08T09:11:19.737Z,7.07
2022-12-08T09:13:53.359Z,7.24
2022-12-08T09:16:21.759Z,7.37
2022-12-08T09:18:49.621Z,7.39
2022-12-08T09:21:22.904Z,7.57
2022-12-08T09:23:53.921Z,7.76
2022-12-08T09:26:23.311Z,7.84
2022-12-08T09:28:53.328Z,7.14
2022-12-08T09:31:23.216Z,7.61
2022-12-08T09:33:54.452Z,7.69
2022-12-08T09:36:22.107Z,7.81
2022-12-08T09:38:51.095Z,7.94
2022-12-08T09:41:48.218Z,7.93
2022-12-08T09:44:47.969Z,7.38
2022-12-08T09:47:33.780Z,7.54
2022-12-08T09:50:14.145Z,7.70
2022-12-08T09:52:52.567Z,7.90
2022-12-08T09:55:49.866Z,7.89
2022-12-08T09:58:53.773Z,7.91
2022-12-08T10:01:26.612Z,7.98
2022-12-08T10:03:57.422Z,7.96
2022-12-08T10:07:24.924Z,8.20
2022-12-08T10:10:11.546Z,7.72
2022-12-08T10:13:01.188Z,7.39
2022-12-08T10:15:43.647Z,7.71
2022-12-08T10:18:28.324Z,7.99
2022-12-08T10:21:12.373Z,8.20
2022-12-08T10:23:45.522Z,8.08
2022-12-08T10:26:17.616Z,7.73
2022-12-08T10:28:45.948Z,7.63
2022-12-08T10:31:32.458Z,7.77
2022-12-08T10:34:20.848Z,8.01
2022-12-08T10:36:59.091Z,8.29
2022-12-08T10:39:36.957Z,8.03
2022-12-08T10:42:13.768Z,8.30
2022-12-08T10:45:11.756Z,8.37
2022-12-08T10:47:45.000Z,7.83
2022-12-08T10:50:28.488Z,7.53
2022-12-08T10:53:20.023Z,7.61
2022-12-08T10:55:58.350Z,8.04
2022-12-08T10:58:36.291Z,8.18
2022-12-08T11:01:26.791Z,7.84
2022-12-08T11:03:58.408Z,7.45
2022-12-08T11:06:32.751Z,7.74
2022-12-08T11:09:17.409Z,7.81
2022-12-08T11:11:58.334Z,8.05
2022-12-08T11:14:29.031Z,8.10
2022-12-08T11:17:07.229Z,8.26
2022-12-08T11:19:41.967Z,8.00
2022-12-08T11:22:30.709Z,8.12
2022-12-08T11:25:24.875Z,8.00
2022-12-08T11:27:57.854Z,7.89
2022-12-08T11:30:36.378Z,7.74
2022-12-08T11:33:19.853Z,7.72
2022-12-08T11:35:56.297Z,7.47
2022-12-08T11:38:27.732Z,7.05
2022-12-08T11:41:22.910Z,7.30
2022-12-08T11:44:05.777Z,7.33
2022-12-08T11:46:58.593Z,7.37
2022-12-08T11:49:40.325Z,7.37
2022-12-08T11:52:26.564Z,7.38
2022-12-08T11:55:05.455Z,7.41
2022-12-08T11:57:33.260Z,7.16
2022-12-08T12:00:02.768Z,7.16
2022-12-08T12:02:48.344Z,7.40
2022-12-08T12:06:23.930Z,7.32
2022-12-08T12:09:22.835Z,7.61
2022-12-08T12:12:15.992Z,7.60
2022-12-08T12:16:00.668Z,7.61
2022-12-08T12:18:47.680Z,7.41
2022-12-08T12:21:35.913Z,7.23
2022-12-08T12:24:25.476Z,7.16
2022-12-08T12:27:22.863Z,7.24
2022-12-08T12:30:06.733Z,7.27
2022-12-08T12:32:58.290Z,7.30
2022-12-08T12:35:41.103Z,7.29
2022-12-08T12:38:42.793Z,7.22
2022-12-08T12:41:13.537Z,7.31
2022-12-08T12:44:13.101Z,7.39
2022-12-08T12:46:46.296Z,7.33
2022-12-08T12:49:39.215Z,7.32
2022-12-08T12:52:16.033Z,7.31
2022-12-08T12:54:55.690Z,7.22
2022-12-08T12:57:37.213Z,7.28
2022-12-08T13:00:04.656Z,7.33
2022-12-08T13:02:44.148Z,7.56
2022-12-08T13:05:31.680Z,7.58
2022-12-08T13:08:19.180Z,7.57
2022-12-08T13:11:09.815Z,7.68
2022-12-08T13:13:56.439Z,7.75
2022-12-08T13:16:27.167Z,7.83
2022-12-08T13:19:03.524Z,7.73
2022-12-08T13:21:39.117Z,7.57
2022-12-08T13:24:33.141Z,7.63
2022-12-08T13:27:03.779Z,7.70
2022-12-08T13:29:33.515Z,7.72
2022-12-08T13:32:10.077Z,7.60
2022-12-08T13:34:45.429Z,7.53
2022-12-08T13:37:15.654Z,7.47
2022-12-08T13:40:00.897Z,7.48
2022-12-08T13:42:40.524Z,7.35
2022-12-08T13:45:27.845Z,7.25
2022-12-08T13:48:44.677Z,7.19
2022-12-08T13:55:12.948Z,7.20
2022-12-08T13:57:29.642Z,7.19
2022-12-08T14:00:15.331Z,7.17
2022-12-08T14:02:48.559Z,7.10
2022-12-08T14:05:34.618Z,7.15
2022-12-08T14:08:57.018Z,7.15
2022-12-08T14:11:33.777Z,7.18
2022-12-08T14:14:06.503Z,7.15
2022-12-08T14:16:40.765Z,7.09
2022-12-08T14:19:21.128Z,6.99
2022-12-08T14:22:14.118Z,6.93
2022-12-08T14:24:57.826Z,6.92
2022-12-08T14:27:32.293Z,6.84
2022-12-08T14:30:07.677Z,6.87
2022-12-08T14:32:39.468Z,6.92
2022-12-08T14:35:07.195Z,6.87
2022-12-08T14:37:48.720Z,6.81
2022-12-08T14:40:25.155Z,6.82
2022-12-08T14:43:19.709Z,6.80
2022-12-08T14:45:50.864Z,6.81
2022-12-08T14:48:31.022Z,6.81
2022-12-08T14:51:21.217Z,6.89
2022-12-08T14:53:56.267Z,6.87
2022-12-08T14:56:45.437Z,6.85
2022-12-08T14:59:23.047Z,6.83
2022-12-08T15:02:08.827Z,6.81
2022-12-08T15:04:44.656Z,6.82
2022-12-08T15:07:19.538Z,6.87
2022-12-08T15:10:05.918Z,6.92
2022-12-08T15:12:33.795Z,6.93
2022-12-08T15:15:14.415Z,6.92
2022-12-08T15:17:51.626Z,6.94
2022-12-08T15:20:40.967Z,6.98
2022-12-08T15:23:38.424Z,6.98
2022-12-08T15:26:06.540Z,6.99
2022-12-08T15:28:34.280Z,6.96
2022-12-08T15:31:02.447Z,7.07
2022-12-08T15:33:29.912Z,7.11
2022-12-08T15:35:57.447Z,7.01
2022-12-08T15:38:28.862Z,6.96
2022-12-08T15:41:00.822Z,6.88
2022-12-08T15:43:31.336Z,6.80
2022-12-08T15:46:00.226Z,6.68
2022-12-08T15:48:30.635Z,6.53
2022-12-08T15:50:58.591Z,6.43
2022-12-08T15:53:26.315Z,6.36
2022-12-08T15:58:55.257Z,6.36
2022-12-08T16:01:24.559Z,6.37
2022-12-08T16:07:20.257Z,6.57
2022-12-08T16:09:38.629Z,6.65
2022-12-08T16:13:13.420Z,6.63
2022-12-08T16:18:27.623Z,6.56
2022-12-08T16:23:45.236Z,6.62
2022-12-08T16:26:35.437Z,6.64
2022-12-08T16:29:05.660Z,6.65
2022-12-08T16:31:33.506Z,6.65
2022-12-08T16:34:01.209Z,6.70
2022-12-08T16:36:28.856Z,6.68
2022-12-08T16:38:56.539Z,6.65
2022-12-08T16:41:43.112Z,6.68
2022-12-08T16:44:10.653Z,6.57
2022-12-08T16:46:38.353Z,6.46
2022-12-08T16:49:09.428Z,6.42
2022-12-08T16:51:37.195Z,6.40
2022-12-08T16:54:05.022Z,6.39
2022-12-08T16:56:33.745Z,6.35
2022-12-08T16:59:02.296Z,6.30
2022-12-08T17:01:30.715Z,6.19
2022-12-08T17:06:46.533Z,5.94
2022-12-08T17:09:14.315Z,5.81
2022-12-08T17:11:43.710Z,5.70
2022-12-08T17:14:14.721Z,5.71
2022-12-08T17:16:44.163Z,5.66
2022-12-08T17:19:14.097Z,5.57
2022-12-08T17:21:42.968Z,5.60
2022-12-08T17:24:10.992Z,5.65
2022-12-08T17:26:38.628Z,5.56
2022-12-08T17:29:06.324Z,5.43
2022-12-08T17:31:34.233Z,5.41
2022-12-08T17:34:04.911Z,5.38
2022-12-08T17:36:32.727Z,5.47
2022-12-08T17:39:01.251Z,5.55
2022-12-08T17:41:29.430Z,5.53
2022-12-08T17:43:57.509Z,5.62
2022-12-08T17:46:25.241Z,5.68
2022-12-08T17:48:53.636Z,5.62
2022-12-08T17:51:21.404Z,5.56
2022-12-08T17:53:49.055Z,5.57
2022-12-08T17:56:21.861Z,5.39
2022-12-08T17:58:54.284Z,5.26
2022-12-08T18:01:24.133Z,5.29
2022-12-08T18:03:51.890Z,5.54
2022-12-08T18:06:19.655Z,5.63
2022-12-08T18:08:47.441Z,5.73
2022-12-08T18:11:19.900Z,5.75
2022-12-08T18:13:50.152Z,5.74
2022-12-08T18:16:21.438Z,5.72
2022-12-08T18:18:49.330Z,5.69
2022-12-08T18:21:23.278Z,5.75
2022-12-08T18:23:52.107Z,5.82
2022-12-08T18:26:19.878Z,5.92
2022-12-08T18:28:47.926Z,6.03
2022-12-08T18:31:19.812Z,6.15
2022-12-08T18:33:49.607Z,6.31
2022-12-08T18:36:21.977Z,6.34
2022-12-08T18:38:50.272Z,6.39
2022-12-08T18:41:25.705Z,6.48
2022-12-08T18:43:55.365Z,6.52
2022-12-08T18:46:24.840Z,6.12
2022-12-08T18:48:53.117Z,6.05
2022-12-08T18:51:24.089Z,5.89
2022-12-08T18:53:52.495Z,5.71
2022-12-08T18:56:33.031Z,5.71
2022-12-08T18:59:08.855Z,5.81
2022-12-08T19:01:38.848Z,6.11
2022-12-08T19:04:28.089Z,6.08
2022-12-08T19:06:57.580Z,5.78
2022-12-08T19:09:26.976Z,5.74
2022-12-08T19:11:56.332Z,5.87
2022-12-08T19:14:28.185Z,6.08
2022-12-08T19:16:58.063Z,6.24
2022-12-08T19:19:27.417Z,6.46
2022-12-08T19:21:56.283Z,6.62
2022-12-08T19:24:24.978Z,6.66
2022-12-08T19:26:53.521Z,6.65
2022-12-08T19:29:21.072Z,6.75
2022-12-08T19:31:48.924Z,6.78
2022-12-08T19:34:19.605Z,6.66
2022-12-08T19:36:48.216Z,6.58
2022-12-08T19:39:40.614Z,6.57
2022-12-08T19:42:36.632Z,6.70
2022-12-08T19:45:13.354Z,6.76
2022-12-08T19:47:41.823Z,6.71
2022-12-08T19:50:30.143Z,6.64
2022-12-08T19:52:58.425Z,6.34
2022-12-08T19:55:27.656Z,6.22
2022-12-08T19:57:56.763Z,6.15
2022-12-08T20:00:24.717Z,6.16
2022-12-08T20:02:52.424Z,6.13
2022-12-08T20:05:20.305Z,6.11
2022-12-08T20:07:48.002Z,6.12
2022-12-08T20:10:30.741Z,6.18
2022-12-08T20:13:17.130Z,6.15
2022-12-08T20:15:45.736Z,6.21
2022-12-08T20:18:15.476Z,6.28
2022-12-08T20:20:45.762Z,6.32
2022-12-08T20:23:15.564Z,6.38
2022-12-08T20:25:45.427Z,6.43
2022-12-08T20:28:14.542Z,6.49
2022-12-08T20:30:44.021Z,6.57
2022-12-08T20:33:14.032Z,6.59
2022-12-08T20:35:43.203Z,6.55
2022-12-08T20:38:13.508Z,6.59
2022-12-08T20:40:46.555Z,6.59
2022-12-08T20:43:15.231Z,6.54
2022-12-08T20:45:43.468Z,6.49
2022-12-08T20:48:11.907Z,6.48
2022-12-08T20:50:40.423Z,6.52
2022-12-08T20:53:09.598Z,6.57
2022-12-08T20:55:43.012Z,6.54
2022-12-08T20:58:12.571Z,6.49
2022-12-08T21:00:40.792Z,6.47
2022-12-08T21:03:09.542Z,6.53
2022-12-08T21:05:39.070Z,6.52
2022-12-08T21:08:08.095Z,6.42
2022-12-08T21:10:42.203Z,6.41
2022-12-08T21:13:12.258Z,6.42
2022-12-08T21:15:46.751Z,6.36
2022-12-08T21:18:17.035Z,6.39
2022-12-08T21:20:45.788Z,6.38
2022-12-08T21:23:14.117Z,6.38
2022-12-08T21:25:45.176Z,6.46
2022-12-08T21:28:13.593Z,6.54
2022-12-08T21:30:43.174Z,6.68
2022-12-08T21:33:10.918Z,6.68
2022-12-08T21:35:38.820Z,6.57
2022-12-08T21:38:07.406Z,6.68
2022-12-08T21:40:35.600Z,6.73
2022-12-08T21:43:06.057Z,6.78
2022-12-08T21:45:34.341Z,6.70
2022-12-08T21:48:10.330Z,6.64
2022-12-08T21:50:39.779Z,6.47
2022-12-08T21:53:08.025Z,6.37
2022-12-08T21:55:35.780Z,6.35
2022-12-08T21:58:03.460Z,6.36
2022-12-08T22:00:37.641Z,6.40
2022-12-08T22:03:06.019Z,6.36
2022-12-08T22:05:35.806Z,6.35
2022-12-08T22:08:03.683Z,6.36
2022-12-08T22:10:31.573Z,6.34
2022-12-08T22:12:59.243Z,6.41
2022-12-08T22:15:29.734Z,6.55
2022-12-08T22:17:57.761Z,6.62
2022-12-08T22:20:25.701Z,6.59
2022-12-08T22:22:53.207Z,6.57
2022-12-08T22:25:21.103Z,6.58
2022-12-08T22:27:48.657Z,6.50
2022-12-08T22:30:16.314Z,6.56
2022-12-08T22:32:43.937Z,6.61
2022-12-08T22:35:11.552Z,6.47
2022-12-08T22:37:39.270Z,6.45
2022-12-08T22:40:08.381Z,6.41
2022-12-08T22:42:36.346Z,6.46
2022-12-08T22:45:04.212Z,6.43
2022-12-08T22:47:31.728Z,6.49
2022-12-08T22:49:59.878Z,6.60
2022-12-08T22:52:27.742Z,6.63
2022-12-08T22:54:55.772Z,6.73
2022-12-08T22:57:23.352Z,6.78
2022-12-08T22:59:50.909Z,6.81
2022-12-08T23:02:18.489Z,6.87
2022-12-08T23:04:46.529Z,6.92
2022-12-08T23:07:14.453Z,6.95
2022-12-08T23:09:42.309Z,6.94
2022-12-08T23:12:10.193Z,6.94
2022-12-08T23:14:38.074Z,6.87
2022-12-08T23:17:05.763Z,6.78
2022-12-08T23:19:37.169Z,6.78
2022-12-08T23:22:05.330Z,6.78
2022-12-08T23:24:33.021Z,6.66
2022-12-08T23:27:00.802Z,6.62
2022-12-08T23:29:28.374Z,6.61
2022-12-08T23:31:56.323Z,6.62
2022-12-08T23:34:24.451Z,6.61
2022-12-08T23:36:52.121Z,6.61
2022-12-08T23:39:19.800Z,6.60
2022-12-08T23:41:47.574Z,6.63
2022-12-08T23:44:15.381Z,6.63
2022-12-08T23:46:43.184Z,6.66
2022-12-08T23:49:11.027Z,6.68
2022-12-08T23:51:39.125Z,6.73
2022-12-08T23:54:07.955Z,6.72
2022-12-08T23:56:35.863Z,6.73
2022-12-08T23:59:03.648Z,6.73
